createdAt,value
2018-04-29T00:00:07.902Z,61.10
2018-04-29T00:02:36.165Z,62.50
2018-04-29T00:05:04.442Z,61.30
2018-04-29T00:07:31.945Z,61.10
2018-04-29T00:09:59.457Z,59.90
2018-04-29T00:12:27.742Z,58.90
2018-04-29T00:14:56.013Z,57.90
2018-04-29T00:17:24.275Z,57.30
2018-04-29T00:19:51.782Z,56.70
2018-04-29T00:22:19.293Z,55.50
2018-04-29T00:24:46.794Z,55.70
2018-04-29T00:27:14.293Z,56.40
2018-04-29T00:29:41.802Z,57.30
2018-04-29T00:32:09.302Z,57.60
2018-04-29T00:34:36.792Z,57.80
2018-04-29T00:37:05.062Z,58.30
2018-04-29T00:39:34.069Z,58.40
2018-04-29T00:42:02.386Z,58.70
2018-04-29T00:44:29.905Z,58.70
2018-04-29T00:46:58.190Z,59.50
2018-04-29T00:49:26.457Z,60.30
2018-04-29T00:52:06.698Z,61.50
2018-04-29T00:54:34.201Z,60.70
2018-04-29T00:57:01.709Z,60.80
2018-04-29T00:59:29.989Z,64.40
2018-04-29T01:01:57.509Z,64.30
2018-04-29T01:04:25.020Z,64.80
2018-04-29T01:06:53.304Z,65.60
2018-04-29T01:09:21.577Z,65.40
2018-04-29T01:11:49.861Z,65.60
2018-04-29T01:14:18.133Z,66.30
2018-04-29T01:16:46.409Z,66.60
2018-04-29T01:19:14.683Z,66.60
2018-04-29T01:21:42.953Z,66.40
2018-04-29T01:24:11.233Z,66.20
2018-04-29T01:26:38.734Z,66.00
2018-04-29T01:29:06.234Z,65.90
2018-04-29T01:31:33.737Z,66.10
2018-04-29T01:34:01.249Z,66.60
2018-04-29T01:36:28.755Z,66.40
2018-04-29T01:38:56.266Z,66.70
2018-04-29T01:41:23.784Z,68.60
2018-04-29T01:43:51.595Z,68.40
2018-04-29T01:46:19.094Z,68.80
2018-04-29T01:48:46.605Z,69.30
2018-04-29T01:51:14.109Z,68.60
2018-04-29T01:53:41.606Z,68.10
2018-04-29T01:56:09.105Z,67.20
2018-04-29T01:58:37.369Z,66.50
2018-04-29T02:01:04.872Z,66.40
2018-04-29T02:03:32.373Z,66.10
2018-04-29T02:05:59.870Z,65.80
2018-04-29T02:08:27.397Z,65.70
2018-04-29T02:10:54.914Z,66.20
2018-04-29T02:13:22.413Z,66.80
2018-04-29T02:15:49.916Z,66.90
2018-04-29T02:18:17.461Z,69.10
2018-04-29T02:20:45.739Z,70.20
2018-04-29T02:23:14.032Z,72.20
2018-04-29T02:25:41.537Z,72.20
2018-04-29T02:28:09.054Z,73.30
2018-04-29T02:30:36.590Z,74.50
2018-04-29T02:33:04.865Z,75.70
2018-04-29T02:35:32.393Z,75.70
2018-04-29T02:37:59.899Z,75.00
2018-04-29T02:40:27.441Z,73.40
2018-04-29T02:42:55.709Z,71.70
2018-04-29T02:45:24.052Z,71.50
2018-04-29T02:47:52.277Z,71.40
2018-04-29T02:50:20.574Z,71.30
2018-04-29T02:52:48.073Z,71.20
2018-04-29T02:55:15.583Z,71.60
2018-04-29T02:57:43.096Z,72.50
2018-04-29T03:00:10.598Z,72.70
2018-04-29T03:02:38.121Z,73.60
2018-04-29T03:05:05.632Z,74.70
2018-04-29T03:07:33.128Z,75.10
2018-04-29T03:10:00.625Z,75.30
2018-04-29T03:12:28.140Z,75.50
2018-04-29T03:14:55.657Z,75.30
2018-04-29T03:17:23.197Z,75.30
2018-04-29T03:19:51.473Z,74.60
2018-04-29T03:22:19.845Z,74.40
2018-04-29T03:24:48.119Z,74.10
2018-04-29T03:27:16.415Z,74.10
2018-04-29T03:29:43.479Z,74.10
2018-04-29T03:32:10.551Z,73.90
2018-04-29T03:34:37.600Z,73.80
2018-04-29T03:37:04.649Z,73.70
2018-04-29T03:39:31.700Z,73.40
2018-04-29T03:41:58.770Z,73.50
2018-04-29T03:44:25.841Z,74.10
2018-04-29T03:46:52.942Z,73.80
2018-04-29T03:49:20.022Z,73.40
2018-04-29T03:51:47.860Z,73.60
2018-04-29T03:54:14.921Z,73.40
2018-04-29T03:56:42.000Z,73.10
2018-04-29T03:59:14.906Z,73.70
2018-04-29T04:01:51.278Z,73.80
2018-04-29T04:04:15.401Z,74.00
2018-04-29T04:06:42.460Z,74.10
2018-04-29T04:09:10.293Z,74.70
2018-04-29T04:11:37.376Z,74.70
2018-04-29T04:14:05.271Z,75.10
2018-04-29T04:16:32.329Z,75.10
2018-04-29T04:18:59.405Z,75.50
2018-04-29T04:21:26.474Z,75.80
2018-04-29T04:23:53.537Z,75.70
2018-04-29T04:26:20.597Z,75.80
2018-04-29T04:28:48.409Z,76.50
2018-04-29T04:31:15.468Z,76.60
2018-04-29T04:33:42.542Z,76.70
2018-04-29T04:36:09.602Z,78.00
2018-04-29T04:38:37.426Z,79.10
2018-04-29T04:41:04.480Z,79.00
2018-04-29T04:43:31.533Z,78.90
2018-04-29T04:45:58.605Z,79.00
2018-04-29T04:48:25.670Z,79.00
2018-04-29T04:50:53.481Z,79.50
2018-04-29T04:53:20.611Z,79.50
2018-04-29T04:55:48.115Z,79.60
2018-04-29T04:58:15.708Z,79.60
2018-04-29T05:00:43.165Z,79.70
2018-04-29T05:03:11.442Z,79.60
2018-04-29T05:05:38.941Z,79.60
2018-04-29T05:08:06.447Z,79.40
2018-04-29T05:10:34.731Z,79.50
2018-04-29T05:13:03.009Z,79.20
2018-04-29T05:15:30.526Z,79.10
2018-04-29T05:17:58.026Z,79.30
2018-04-29T05:20:26.294Z,79.60
2018-04-29T05:22:54.573Z,79.50
2018-04-29T05:25:22.857Z,79.60
2018-04-29T05:27:50.370Z,79.50
2018-04-29T05:30:17.865Z,79.20
2018-04-29T05:32:46.133Z,79.30
2018-04-29T05:35:14.401Z,79.60
2018-04-29T05:37:41.922Z,79.50
2018-04-29T05:40:09.415Z,80.20
2018-04-29T05:42:36.924Z,79.60
2018-04-29T05:45:04.425Z,79.00
2018-04-29T05:47:32.801Z,79.20
2018-04-29T05:50:00.309Z,78.80
2018-04-29T05:52:27.809Z,78.70
2018-04-29T05:54:55.331Z,78.40
2018-04-29T05:57:22.837Z,78.00
2018-04-29T05:59:50.458Z,77.90
2018-04-29T06:02:17.961Z,77.70
2018-04-29T06:04:45.462Z,77.40
2018-04-29T06:07:12.970Z,77.30
2018-04-29T06:09:40.491Z,77.20
2018-04-29T06:12:07.998Z,77.20
2018-04-29T06:14:35.506Z,77.10
2018-04-29T06:17:03.026Z,76.50
2018-04-29T06:19:30.538Z,76.10
2018-04-29T06:21:58.085Z,76.00
2018-04-29T06:24:25.602Z,76.00
2018-04-29T06:26:53.869Z,76.30
2018-04-29T06:29:22.137Z,75.10
2018-04-29T06:31:49.758Z,75.20
2018-04-29T06:34:17.295Z,75.20
2018-04-29T06:36:45.570Z,75.10
2018-04-29T06:39:13.842Z,73.80
2018-04-29T06:41:42.110Z,73.40
2018-04-29T06:44:10.405Z,73.60
2018-04-29T06:46:37.909Z,73.50
2018-04-29T06:49:05.415Z,73.70
2018-04-29T06:51:33.689Z,73.10
2018-04-29T06:54:01.972Z,72.60
2018-04-29T06:56:29.477Z,72.60
2018-04-29T06:58:56.994Z,71.80
2018-04-29T07:01:24.549Z,71.90
2018-04-29T07:03:52.042Z,71.50
2018-04-29T07:06:19.565Z,71.30
2018-04-29T07:08:47.066Z,71.10
2018-04-29T07:11:14.578Z,70.70
2018-04-29T07:13:42.845Z,70.30
2018-04-29T07:16:11.109Z,70.00
2018-04-29T07:18:38.642Z,70.00
2018-04-29T07:21:06.168Z,68.80
2018-04-29T07:23:33.677Z,68.80
2018-04-29T07:26:02.742Z,68.70
2018-04-29T07:28:30.270Z,68.60
2018-04-29T07:30:57.786Z,68.80
2018-04-29T07:33:25.322Z,67.60
2018-04-29T07:35:52.821Z,67.70
2018-04-29T07:38:21.141Z,66.40
2018-04-29T07:40:48.657Z,66.40
2018-04-29T07:43:16.173Z,66.30
2018-04-29T07:45:43.687Z,65.90
2018-04-29T07:48:11.942Z,64.70
2018-04-29T07:50:40.941Z,64.30
2018-04-29T07:53:09.959Z,63.70
2018-04-29T07:55:37.471Z,63.70
2018-04-29T07:58:04.965Z,63.70
2018-04-29T08:00:33.229Z,64.20
2018-04-29T08:03:01.506Z,64.30
2018-04-29T08:05:29.791Z,63.70
2018-04-29T08:07:58.054Z,63.10
2018-04-29T08:10:25.551Z,63.00
2018-04-29T08:12:53.084Z,63.00
2018-04-29T08:15:21.370Z,62.80
2018-04-29T08:17:49.634Z,62.60
2018-04-29T08:20:17.899Z,62.00
2018-04-29T08:22:46.284Z,61.30
2018-04-29T08:25:13.739Z,61.30
2018-04-29T08:27:41.255Z,61.10
2018-04-29T08:30:08.800Z,61.20
2018-04-29T08:32:36.320Z,59.50
2018-04-29T08:35:04.587Z,58.90
2018-04-29T08:37:32.092Z,58.90
2018-04-29T08:39:59.593Z,58.80
2018-04-29T08:42:26.656Z,60.20
2018-04-29T08:44:54.170Z,60.70
2018-04-29T08:47:21.689Z,60.00
2018-04-29T08:49:49.957Z,59.20
2018-04-29T08:52:18.340Z,58.90
2018-04-29T08:54:46.613Z,58.40
2018-04-29T08:57:14.899Z,56.90
2018-04-29T08:59:43.162Z,56.40
2018-04-29T09:02:10.662Z,56.40
2018-04-29T09:04:38.177Z,57.00
2018-04-29T09:07:06.445Z,58.50
2018-04-29T09:09:33.950Z,58.40
2018-04-29T09:12:01.447Z,57.60
2018-04-29T09:14:28.944Z,57.70
2018-04-29T09:16:57.284Z,58.40
2018-04-29T09:19:24.741Z,58.40
2018-04-29T09:21:52.243Z,57.40
2018-04-29T09:24:20.550Z,56.30
2018-04-29T09:26:48.042Z,56.20
2018-04-29T09:29:17.041Z,55.10
2018-04-29T09:31:44.534Z,55.10
2018-04-29T09:34:12.033Z,55.40
2018-04-29T09:36:39.539Z,55.60
2018-04-29T09:39:07.813Z,54.30
2018-04-29T09:41:36.168Z,54.70
2018-04-29T09:44:04.450Z,52.20
2018-04-29T09:46:31.966Z,52.10
2018-04-29T09:48:59.485Z,49.70
2018-04-29T09:51:27.752Z,50.10
2018-04-29T09:53:56.022Z,51.00
2018-04-29T09:56:23.525Z,51.00
2018-04-29T09:58:51.031Z,46.90
2018-04-29T10:01:25.116Z,45.10
2018-04-29T10:03:52.615Z,47.70
2018-04-29T10:06:20.121Z,47.30
2018-04-29T10:08:47.621Z,46.10
2018-04-29T10:11:15.917Z,43.70
2018-04-29T10:13:44.197Z,43.30
2018-04-29T10:16:12.475Z,42.70
2018-04-29T10:18:40.734Z,41.60
2018-04-29T10:21:08.340Z,41.60
2018-04-29T10:23:35.837Z,41.20
2018-04-29T10:26:03.346Z,42.20
2018-04-29T10:28:30.833Z,43.30
2018-04-29T10:30:58.337Z,44.30
2018-04-29T10:33:26.617Z,40.10
2018-04-29T10:35:54.874Z,39.20
2018-04-29T10:38:22.369Z,39.20
2018-04-29T10:40:49.915Z,38.40
2018-04-29T10:43:18.190Z,38.50
2018-04-29T10:45:46.445Z,39.00
2018-04-29T10:48:13.942Z,39.00
2018-04-29T10:50:41.445Z,38.40
2018-04-29T10:53:09.073Z,39.60
2018-04-29T10:55:36.577Z,41.10
2018-04-29T10:58:04.088Z,41.30
2018-04-29T11:00:31.586Z,38.50
2018-04-29T11:02:59.073Z,36.90
2018-04-29T11:05:27.347Z,40.10
2018-04-29T11:07:55.608Z,40.40
2018-04-29T11:10:23.106Z,40.40
2018-04-29T11:12:51.071Z,40.60
2018-04-29T11:15:18.574Z,39.80
2018-04-29T11:17:46.086Z,39.40
2018-04-29T11:20:13.585Z,39.80
2018-04-29T11:22:41.100Z,41.10
2018-04-29T11:25:09.367Z,37.90
2018-04-29T11:27:37.634Z,38.00
2018-04-29T11:30:05.910Z,39.60
2018-04-29T11:32:34.181Z,39.40
2018-04-29T11:35:01.693Z,39.40
2018-04-29T11:37:29.209Z,39.40
2018-04-29T11:39:57.502Z,37.70
2018-04-29T11:42:25.121Z,37.60
2018-04-29T11:44:52.669Z,37.40
2018-04-29T11:47:20.157Z,37.30
2018-04-29T11:49:47.657Z,37.80
2018-04-29T11:52:15.169Z,37.50
2018-04-29T11:54:44.169Z,36.00
2018-04-29T11:57:12.429Z,34.10
2018-04-29T11:59:39.925Z,34.60
2018-04-29T12:02:07.443Z,34.20
2018-04-29T12:04:34.937Z,34.60
2018-04-29T12:07:03.227Z,33.20
2018-04-29T12:09:30.721Z,33.20
2018-04-29T12:11:58.227Z,35.30
2018-04-29T12:14:26.503Z,32.40
2018-04-29T12:16:54.773Z,32.40
2018-04-29T12:19:23.054Z,31.40
2018-04-29T12:21:51.317Z,31.10
2018-04-29T12:24:18.881Z,31.10
2018-04-29T12:26:47.141Z,31.00
2018-04-29T12:29:14.653Z,30.90
2018-04-29T12:31:42.157Z,32.00
2018-04-29T12:34:09.654Z,31.60
2018-04-29T12:36:37.202Z,32.50
2018-04-29T12:39:05.564Z,32.90
2018-04-29T12:41:33.064Z,32.80
2018-04-29T12:44:00.597Z,32.80
2018-04-29T12:46:28.106Z,31.60
2018-04-29T12:48:55.609Z,31.10
2018-04-29T12:51:23.877Z,31.90
2018-04-29T12:53:51.378Z,31.90
2018-04-29T12:56:18.886Z,30.60
2018-04-29T12:58:46.478Z,31.30
2018-04-29T13:01:13.989Z,30.80
2018-04-29T13:03:41.482Z,30.20
2018-04-29T13:06:09.751Z,28.70
2018-04-29T13:08:38.009Z,30.50
2018-04-29T13:11:05.503Z,30.50
2018-04-29T13:13:33.761Z,29.40
2018-04-29T13:16:02.038Z,30.00
2018-04-29T13:18:30.319Z,28.80
2018-04-29T13:20:58.577Z,28.40
2018-04-29T13:23:26.090Z,28.40
2018-04-29T13:25:53.608Z,27.20
2018-04-29T13:28:21.885Z,27.70
2018-04-29T13:30:50.145Z,26.60
2018-04-29T13:33:19.157Z,25.00
2018-04-29T13:35:47.491Z,26.50
2018-04-29T13:38:14.998Z,26.50
2018-04-29T13:40:43.261Z,27.40
2018-04-29T13:43:12.265Z,27.80
2018-04-29T13:45:40.545Z,27.60
2018-04-29T13:48:08.821Z,27.80
2018-04-29T13:50:37.090Z,27.00
2018-04-29T13:53:05.374Z,27.20
2018-04-29T13:55:33.660Z,27.30
2018-04-29T13:58:01.162Z,27.30
2018-04-29T14:00:28.657Z,27.80
2018-04-29T14:02:56.920Z,26.70
2018-04-29T14:05:24.430Z,26.70
2018-04-29T14:07:51.937Z,26.10
2018-04-29T14:10:19.461Z,25.80
2018-04-29T14:12:46.954Z,27.20
2018-04-29T14:15:14.448Z,27.00
2018-04-29T14:17:41.954Z,26.20
2018-04-29T14:20:09.450Z,26.10
2018-04-29T14:22:37.718Z,26.70
2018-04-29T14:25:05.993Z,25.30
2018-04-29T14:27:34.266Z,25.30
2018-04-29T14:30:01.773Z,25.30
2018-04-29T14:32:29.276Z,25.00
2018-04-29T14:34:57.568Z,25.60
2018-04-29T14:37:25.825Z,25.20
2018-04-29T14:39:53.332Z,25.20
2018-04-29T14:42:20.821Z,26.90
2018-04-29T14:44:49.104Z,25.10
2018-04-29T14:47:16.624Z,25.30
2018-04-29T14:49:44.168Z,25.10
2018-04-29T14:52:12.450Z,24.50
2018-04-29T14:54:40.027Z,24.50
2018-04-29T14:57:07.554Z,24.30
2018-04-29T14:59:35.833Z,25.10
2018-04-29T15:02:04.086Z,23.60
2018-04-29T15:04:32.346Z,24.60
2018-04-29T15:06:59.851Z,24.60
2018-04-29T15:09:28.176Z,24.50
2018-04-29T15:11:56.397Z,24.00
2018-04-29T15:14:27.517Z,24.00
2018-04-29T15:16:55.018Z,23.90
2018-04-29T15:19:22.557Z,23.50
2018-04-29T15:21:50.850Z,24.10
2018-04-29T15:24:18.349Z,24.10
2018-04-29T15:26:45.860Z,24.30
2018-04-29T15:29:14.129Z,24.00
2018-04-29T15:31:42.406Z,24.20
2018-04-29T15:34:10.669Z,24.00
2018-04-29T15:36:38.937Z,24.10
2018-04-29T15:39:07.205Z,23.60
2018-04-29T15:41:35.467Z,23.00
2018-04-29T15:44:02.961Z,23.00
2018-04-29T15:46:31.261Z,22.50
2018-04-29T15:48:58.833Z,22.30
2018-04-29T15:51:26.809Z,23.10
2018-04-29T15:53:54.323Z,23.60
2018-04-29T15:56:22.588Z,24.30
2018-04-29T15:58:50.160Z,24.30
2018-04-29T16:01:18.461Z,24.90
2018-04-29T16:03:45.961Z,24.40
2018-04-29T16:06:13.456Z,24.00
2018-04-29T16:08:41.742Z,25.20
2018-04-29T16:11:10.014Z,26.00
2018-04-29T16:13:38.321Z,26.20
2018-04-29T16:16:05.809Z,26.20
2018-04-29T16:18:33.313Z,26.30
2018-04-29T16:21:01.571Z,26.20
2018-04-29T16:23:29.087Z,26.20
2018-04-29T16:25:56.593Z,26.40
2018-04-29T16:28:24.907Z,27.20
2018-04-29T16:30:52.417Z,27.10
2018-04-29T16:33:19.929Z,27.60
2018-04-29T16:35:47.442Z,27.50
2018-04-29T16:38:15.040Z,28.50
2018-04-29T16:40:42.553Z,29.20
2018-04-29T16:43:10.050Z,28.70
2018-04-29T16:45:37.561Z,29.40
2018-04-29T16:48:05.058Z,29.60
2018-04-29T16:50:33.342Z,29.90
2018-04-29T16:53:00.841Z,29.90
2018-04-29T16:55:28.368Z,29.80
2018-04-29T16:57:55.882Z,30.00
2018-04-29T17:00:23.461Z,31.10
2018-04-29T17:02:51.742Z,32.00
2018-04-29T17:05:20.006Z,35.30
2018-04-29T17:07:48.281Z,33.10
2018-04-29T17:10:16.557Z,30.60
2018-04-29T17:12:44.862Z,31.90
2018-04-29T17:15:12.370Z,31.30
2018-04-29T17:17:39.878Z,30.80
2018-04-29T17:20:07.406Z,28.70
2018-04-29T17:22:34.933Z,33.70
2018-04-29T17:25:02.450Z,29.70
2018-04-29T17:27:29.945Z,28.80
2018-04-29T17:29:57.449Z,26.50
2018-04-29T17:32:25.721Z,26.10
2018-04-29T17:34:53.985Z,24.80
2018-04-29T17:37:22.270Z,27.80
2018-04-29T17:39:50.565Z,35.60
2018-04-29T17:42:18.833Z,26.50
2018-04-29T17:44:47.109Z,25.50
2018-04-29T17:47:15.370Z,23.80
2018-04-29T17:49:42.878Z,23.70
2018-04-29T17:52:10.407Z,19.40
2018-04-29T17:54:38.673Z,19.20
2018-04-29T17:57:06.185Z,19.10
2018-04-29T17:59:33.682Z,18.10
2018-04-29T18:02:01.182Z,17.40
2018-04-29T18:04:28.701Z,19.00
2018-04-29T18:06:56.228Z,19.40
2018-04-29T18:09:23.722Z,18.40
2018-04-29T18:11:51.218Z,19.40
2018-04-29T18:14:18.722Z,20.70
2018-04-29T18:16:46.217Z,21.20
2018-04-29T18:19:14.476Z,23.70
2018-04-29T18:21:42.762Z,25.40
2018-04-29T18:24:11.058Z,25.90
2018-04-29T18:26:38.562Z,25.90
2018-04-29T18:29:06.057Z,26.70
2018-04-29T18:31:34.325Z,28.40
2018-04-29T18:34:02.585Z,29.00
2018-04-29T18:36:30.165Z,29.00
2018-04-29T18:38:58.508Z,30.50
2018-04-29T18:41:26.713Z,31.10
2018-04-29T18:43:54.992Z,31.80
2018-04-29T18:46:23.269Z,32.30
2018-04-29T18:48:51.529Z,32.70
2018-04-29T18:51:19.101Z,32.70
2018-04-29T18:53:50.483Z,33.30
2018-04-29T18:56:19.065Z,33.80
2018-04-29T18:58:47.313Z,34.70
2018-04-29T19:01:14.900Z,34.60
2018-04-29T19:03:42.390Z,35.00
2018-04-29T19:06:09.904Z,35.30
2018-04-29T19:08:37.421Z,35.40
2018-04-29T19:11:04.469Z,35.70
2018-04-29T19:13:31.537Z,36.00
2018-04-29T19:15:59.078Z,36.00
2018-04-29T19:18:26.570Z,37.00
2018-04-29T19:20:54.854Z,36.70
2018-04-29T19:23:23.254Z,36.80
2018-04-29T19:25:50.753Z,36.70
2018-04-29T19:28:18.259Z,37.10
2018-04-29T19:30:45.908Z,37.20
2018-04-29T19:33:14.174Z,37.50
2018-04-29T19:35:42.446Z,37.90
2018-04-29T19:38:10.729Z,38.00
2018-04-29T19:40:38.990Z,38.00
2018-04-29T19:43:06.495Z,38.00
2018-04-29T19:45:34.040Z,38.10
2018-04-29T19:48:01.554Z,38.30
2018-04-29T19:50:29.051Z,38.40
2018-04-29T19:52:57.313Z,38.60
2018-04-29T19:55:25.585Z,38.90
2018-04-29T19:57:53.891Z,39.10
2018-04-29T20:00:21.398Z,39.10
2018-04-29T20:02:48.885Z,39.30
2018-04-29T20:05:17.154Z,39.60
2018-04-29T20:07:45.425Z,39.70
2018-04-29T20:10:13.696Z,39.90
2018-04-29T20:12:41.201Z,39.90
2018-04-29T20:15:08.714Z,40.10
2018-04-29T20:17:36.225Z,40.20
2018-04-29T20:20:03.722Z,40.40
2018-04-29T20:22:31.242Z,40.30
2018-04-29T20:24:58.803Z,40.30
2018-04-29T20:27:26.294Z,40.40
2018-04-29T20:29:53.863Z,40.60
2018-04-29T20:32:33.164Z,40.50
2018-04-29T20:35:00.677Z,40.40
2018-04-29T20:37:28.946Z,41.00
2018-04-29T20:39:57.029Z,41.00
2018-04-29T20:42:25.293Z,41.10
2018-04-29T20:44:52.811Z,41.10
2018-04-29T20:47:20.309Z,40.90
2018-04-29T20:49:48.565Z,41.40
2018-04-29T20:52:16.066Z,41.50
2018-04-29T20:54:44.333Z,41.70
2018-04-29T20:57:12.606Z,42.00
2018-04-29T20:59:40.866Z,42.30
2018-04-29T21:02:08.362Z,42.30
2018-04-29T21:04:35.895Z,42.50
2018-04-29T21:07:04.170Z,42.70
2018-04-29T21:09:31.667Z,42.60
2018-04-29T21:11:59.177Z,42.50
2018-04-29T21:14:26.675Z,42.60
2018-04-29T21:16:54.190Z,42.80
2018-04-29T21:19:21.681Z,43.00
2018-04-29T21:21:49.985Z,43.40
2018-04-29T21:24:17.504Z,44.10
2018-04-29T21:26:45.775Z,43.30
2018-04-29T21:29:14.077Z,43.30
2018-04-29T21:31:41.589Z,43.30
2018-04-29T21:34:09.077Z,43.30
2018-04-29T21:36:37.346Z,43.40
2018-04-29T21:39:05.742Z,43.40
2018-04-29T21:41:34.001Z,43.60
2018-04-29T21:44:02.269Z,43.90
2018-04-29T21:46:29.782Z,43.80
2018-04-29T21:48:57.290Z,43.80
2018-04-29T21:51:25.559Z,44.00
2018-04-29T21:53:53.049Z,43.90
2018-04-29T21:56:21.363Z,43.80
2018-04-29T21:58:49.594Z,44.10
2018-04-29T22:01:17.857Z,44.20
2018-04-29T22:03:45.358Z,44.10
2018-04-29T22:06:12.899Z,44.20
2018-04-29T22:08:40.398Z,44.30
2018-04-29T22:11:07.965Z,44.30
2018-04-29T22:13:35.466Z,44.40
2018-04-29T22:16:03.753Z,44.60
2018-04-29T22:18:32.029Z,44.70
2018-04-29T22:20:59.526Z,44.70
2018-04-29T22:23:27.017Z,44.70
2018-04-29T22:25:54.537Z,44.60
2018-04-29T22:28:22.026Z,45.20
2018-04-29T22:30:49.545Z,44.80
2018-04-29T22:33:17.052Z,44.70
2018-04-29T22:35:44.551Z,44.70
2018-04-29T22:38:12.042Z,45.20
2018-04-29T22:40:39.570Z,44.90
2018-04-29T22:43:07.069Z,45.20
2018-04-29T22:45:34.557Z,45.00
2018-04-29T22:48:02.822Z,44.90
2018-04-29T22:50:30.397Z,45.00
2018-04-29T22:52:58.677Z,45.40
2018-04-29T22:55:26.941Z,45.30
2018-04-29T22:57:55.218Z,45.40
2018-04-29T23:00:23.477Z,45.40
2018-04-29T23:02:52.485Z,45.60
2018-04-29T23:05:20.758Z,45.50
2018-04-29T23:07:49.043Z,45.40
2018-04-29T23:10:17.329Z,45.50
2018-04-29T23:12:45.589Z,45.70
2018-04-29T23:15:13.857Z,45.80
2018-04-29T23:17:41.361Z,45.80
2018-04-29T23:20:08.849Z,46.00
2018-04-29T23:22:36.349Z,46.00
2018-04-29T23:25:04.625Z,45.90
2018-04-29T23:27:32.897Z,46.00
2018-04-29T23:30:01.172Z,46.10
2018-04-29T23:32:29.429Z,46.00
2018-04-29T23:34:57.022Z,46.00
2018-04-29T23:37:25.294Z,46.30
2018-04-29T23:39:53.559Z,46.30
2018-04-29T23:42:21.844Z,46.10
2018-04-29T23:44:50.109Z,46.30
2018-04-29T23:47:18.369Z,46.90
2018-04-29T23:49:47.369Z,46.30
2018-04-29T23:52:15.637Z,46.10
2018-04-29T23:54:43.130Z,46.20
2018-04-29T23:57:11.419Z,46.10
2018-04-29T23:59:38.941Z,46.10
